createdAt,value
2022-09-17T00:00:39.715Z,1.37
2022-09-17T00:04:41.492Z,1.50
2022-09-17T00:08:43.251Z,1.10
2022-09-17T00:12:45.729Z,1.23
2022-09-17T00:16:49.121Z,1.00
2022-09-17T00:20:50.903Z,1.40
2022-09-17T00:24:52.758Z,0.90
2022-09-17T00:28:55.247Z,1.03
2022-09-17T00:32:57.854Z,1.40
2022-09-17T00:37:01.952Z,1.00
2022-09-17T00:41:04.208Z,1.10
2022-09-17T00:45:06.725Z,1.00
2022-09-17T00:49:13.454Z,0.90
2022-09-17T00:53:17.003Z,0.97
2022-09-17T00:57:18.782Z,1.00
2022-09-17T01:01:20.627Z,0.80
2022-09-17T01:05:31.322Z,0.80
2022-09-17T01:09:57.687Z,0.90
2022-09-17T01:14:32.611Z,0.80
2022-09-17T01:18:58.013Z,0.83
2022-09-17T01:23:29.456Z,0.80
2022-09-17T01:28:09.141Z,0.80
2022-09-17T01:32:25.585Z,1.00
2022-09-17T01:36:59.969Z,0.90
2022-09-17T01:41:07.748Z,1.00
2022-09-17T01:45:36.387Z,1.00
2022-09-17T01:49:38.668Z,0.90
2022-09-17T01:53:59.393Z,1.00
2022-09-17T01:58:04.788Z,1.03
2022-09-17T02:02:21.323Z,0.70
2022-09-17T02:06:36.607Z,0.87
2022-09-17T02:10:55.581Z,0.90
2022-09-17T02:15:05.624Z,1.20
2022-09-17T02:19:31.577Z,0.90
2022-09-17T02:23:36.992Z,1.00
2022-09-17T02:27:58.009Z,1.17
2022-09-17T02:31:59.881Z,0.93
2022-09-17T02:36:02.404Z,0.60
2022-09-17T02:40:05.231Z,0.73
2022-09-17T02:44:32.113Z,0.97
2022-09-17T02:48:42.520Z,0.80
2022-09-17T02:53:07.871Z,0.90
2022-09-17T02:57:21.628Z,1.00
2022-09-17T03:01:34.067Z,0.80
2022-09-17T03:05:36.817Z,0.80
2022-09-17T03:09:38.812Z,0.80
2022-09-17T03:13:40.694Z,0.67
2022-09-17T03:17:42.404Z,0.90
2022-09-17T03:21:44.536Z,0.90
2022-09-17T03:25:46.888Z,0.90
2022-09-17T03:29:48.680Z,0.63
2022-09-17T03:33:50.466Z,1.00
2022-09-17T03:37:52.296Z,0.70
2022-09-17T03:41:53.984Z,0.97
2022-09-17T03:45:55.801Z,1.40
2022-09-17T03:49:57.797Z,1.00
2022-09-17T03:53:59.606Z,1.10
2022-09-17T03:58:01.441Z,1.10
2022-09-17T04:02:03.270Z,1.10
2022-09-17T04:06:05.310Z,1.23
2022-09-17T04:10:08.462Z,1.00
2022-09-17T04:14:10.286Z,1.10
2022-09-17T04:18:12.172Z,1.37
2022-09-17T04:22:13.895Z,1.20
2022-09-17T04:26:15.960Z,1.20
2022-09-17T04:30:17.966Z,1.30
2022-09-17T04:34:19.887Z,1.30
2022-09-17T04:38:22.209Z,1.20
2022-09-17T04:42:23.984Z,1.17
2022-09-17T04:46:25.737Z,1.13
2022-09-17T04:50:27.538Z,1.27
2022-09-17T04:54:29.324Z,1.47
2022-09-17T04:58:31.380Z,1.40
2022-09-17T05:02:33.175Z,1.20
2022-09-17T05:06:35.070Z,1.50
2022-09-17T05:10:36.794Z,1.40
2022-09-17T05:14:38.596Z,1.43
2022-09-17T05:18:40.403Z,1.63
2022-09-17T05:22:50.587Z,2.00
2022-09-17T05:26:52.371Z,1.43
2022-09-17T05:30:54.155Z,1.50
2022-09-17T05:34:56.618Z,1.30
2022-09-17T05:38:58.277Z,1.53
2022-09-17T05:43:01.423Z,2.70
2022-09-17T05:47:03.164Z,1.23
2022-09-17T05:51:05.176Z,1.27
2022-09-17T05:55:08.771Z,1.40
2022-09-17T05:59:10.521Z,1.50
2022-09-17T06:03:13.541Z,1.20
2022-09-17T06:07:15.355Z,1.20
2022-09-17T06:11:29.268Z,1.20
2022-09-17T06:15:31.581Z,1.20
2022-09-17T06:19:33.801Z,1.10
2022-09-17T06:23:35.520Z,1.00
2022-09-17T06:27:37.304Z,1.07
2022-09-17T06:31:39.079Z,0.90
2022-09-17T06:35:41.148Z,1.30
2022-09-17T06:39:42.978Z,0.90
2022-09-17T06:43:45.174Z,0.87
2022-09-17T06:47:47.063Z,0.80
2022-09-17T06:51:48.789Z,0.70
2022-09-17T06:55:50.760Z,0.70
2022-09-17T06:59:52.622Z,0.60
2022-09-17T07:03:54.834Z,0.50
2022-09-17T07:07:56.659Z,0.60
2022-09-17T07:11:58.462Z,0.60
2022-09-17T07:16:01.877Z,0.60
2022-09-17T07:20:04.029Z,0.60
2022-09-17T07:24:06.118Z,0.93
2022-09-17T07:28:07.849Z,1.67
2022-09-17T07:32:09.591Z,1.70
2022-09-17T07:36:13.004Z,1.90
2022-09-17T07:40:15.011Z,2.30
2022-09-17T07:44:16.852Z,2.70
2022-09-17T07:48:19.568Z,2.90
2022-09-17T07:52:21.246Z,2.80
2022-09-17T07:56:23.209Z,2.60
2022-09-17T08:00:25.851Z,3.00
2022-09-17T08:04:27.642Z,3.30
2022-09-17T08:08:31.370Z,2.70
2022-09-17T08:12:33.100Z,3.13
2022-09-17T08:16:34.850Z,3.43
2022-09-17T08:20:36.532Z,2.83
2022-09-17T08:24:38.350Z,2.77
2022-09-17T08:28:40.276Z,3.00
2022-09-17T08:32:46.160Z,2.50
2022-09-17T08:36:47.902Z,3.00
2022-09-17T08:41:11.935Z,2.70
2022-09-17T08:45:14.420Z,2.83
2022-09-17T08:49:36.944Z,2.80
2022-09-17T08:54:02.708Z,2.80
2022-09-17T08:58:46.946Z,3.10
2022-09-17T09:03:20.689Z,2.60
2022-09-17T09:07:29.217Z,2.50
2022-09-17T09:11:31.473Z,2.33
2022-09-17T09:15:54.279Z,2.40
2022-09-17T09:19:56.426Z,2.10
2022-09-17T09:24:06.234Z,2.07
2022-09-17T09:28:38.253Z,2.20
2022-09-17T09:33:01.026Z,1.60
2022-09-17T09:37:21.831Z,2.27
2022-09-17T09:41:46.462Z,2.13
2022-09-17T09:46:26.061Z,1.63
2022-09-17T09:51:05.355Z,1.70
2022-09-17T09:55:30.228Z,1.37
2022-09-17T09:59:31.943Z,1.50
2022-09-17T10:03:33.669Z,1.40
2022-09-17T10:07:44.726Z,1.30
2022-09-17T10:12:04.371Z,1.53
2022-09-17T10:16:19.868Z,0.93
2022-09-17T10:20:23.267Z,0.80
2022-09-17T10:24:32.577Z,1.03
2022-09-17T10:28:59.219Z,0.93
2022-09-17T10:33:29.080Z,0.80
2022-09-17T10:37:46.457Z,1.00
2022-09-17T10:41:57.964Z,1.00
2022-09-17T10:46:00.294Z,0.80
2022-09-17T10:50:15.194Z,1.63
2022-09-17T10:54:28.804Z,1.47
2022-09-17T10:58:55.981Z,1.30
2022-09-17T11:03:10.732Z,1.37
2022-09-17T11:07:25.789Z,1.00
2022-09-17T11:11:45.773Z,0.97
2022-09-17T11:16:22.730Z,1.00
2022-09-17T11:20:46.884Z,1.13
2022-09-17T11:25:18.020Z,1.10
2022-09-17T11:29:50.589Z,1.30
2022-09-17T11:34:03.740Z,1.30
2022-09-17T11:38:18.870Z,1.10
2022-09-17T11:42:25.010Z,1.33
2022-09-17T11:46:48.491Z,1.20
2022-09-17T11:51:04.928Z,1.00
2022-09-17T11:55:31.581Z,0.90
2022-09-17T11:59:52.069Z,1.23
2022-09-17T12:04:00.331Z,1.30
2022-09-17T12:08:14.783Z,1.10
2022-09-17T12:12:45.069Z,1.10
2022-09-17T12:16:45.406Z,1.60
2022-09-17T12:20:50.184Z,1.40
2022-09-17T12:24:52.754Z,1.53
2022-09-17T12:29:39.227Z,1.53
2022-09-17T12:33:52.528Z,1.67
2022-09-17T12:38:19.511Z,1.47
2022-09-17T12:42:38.315Z,1.70
2022-09-17T12:47:11.815Z,2.27
2022-09-17T12:51:46.327Z,4.70
2022-09-17T12:56:22.091Z,1.87
2022-09-17T13:00:36.793Z,1.40
2022-09-17T13:05:01.828Z,1.30
2022-09-17T13:09:51.796Z,1.30
2022-09-17T13:14:20.058Z,1.30
2022-09-17T13:19:15.033Z,1.70
2022-09-17T13:23:16.702Z,1.37
2022-09-17T13:27:26.239Z,0.90
2022-09-17T13:31:34.380Z,1.23
2022-09-17T13:35:39.621Z,1.10
2022-09-17T13:39:46.791Z,0.90
2022-09-17T13:43:54.363Z,0.90
2022-09-17T13:48:05.662Z,0.70
2022-09-17T13:52:11.644Z,0.83
2022-09-17T13:56:46.297Z,0.60
2022-09-17T14:01:10.836Z,1.03
2022-09-17T14:05:37.741Z,0.87
2022-09-17T14:09:54.273Z,1.30
2022-09-17T14:14:05.110Z,0.80
2022-09-17T14:18:28.772Z,0.97
2022-09-17T14:22:30.565Z,1.30
2022-09-17T14:26:53.385Z,1.30
2022-09-17T14:30:55.159Z,1.30
2022-09-17T14:34:58.640Z,1.30
2022-09-17T14:39:12.032Z,1.50
2022-09-17T14:43:59.207Z,1.17
2022-09-17T14:48:30.453Z,1.17
2022-09-17T14:52:32.692Z,1.50
2022-09-17T14:56:36.683Z,1.40
2022-09-17T15:00:38.746Z,1.63
2022-09-17T15:04:43.682Z,1.57
2022-09-17T15:08:45.741Z,2.30
2022-09-17T15:12:48.475Z,9.27
2022-09-17T15:16:54.994Z,1.80
2022-09-17T15:20:56.908Z,3.57
2022-09-17T15:25:26.402Z,1.63
2022-09-17T15:29:29.379Z,2.57
2022-09-17T15:33:31.858Z,2.00
2022-09-17T15:37:33.561Z,1.40
2022-09-17T15:41:36.148Z,2.47
2022-09-17T15:45:39.289Z,1.63
2022-09-17T15:49:41.065Z,2.43
2022-09-17T15:53:56.424Z,1.30
2022-09-17T15:57:59.417Z,1.43
2022-09-17T16:02:02.016Z,1.43
2022-09-17T16:06:04.887Z,1.60
2022-09-17T16:10:07.965Z,1.40
2022-09-17T16:14:09.674Z,1.13
2022-09-17T16:18:13.500Z,0.90
2022-09-17T16:22:15.356Z,1.37
2022-09-17T16:26:19.388Z,1.20
2022-09-17T16:30:24.331Z,1.17
2022-09-17T16:34:26.146Z,1.33
2022-09-17T16:38:27.990Z,1.63
2022-09-17T16:42:32.767Z,1.60
2022-09-17T16:46:34.778Z,1.40
2022-09-17T16:50:41.235Z,1.60
2022-09-17T16:54:43.283Z,1.30
2022-09-17T16:58:45.062Z,1.37
2022-09-17T17:02:57.061Z,1.13
2022-09-17T17:06:58.996Z,1.47
2022-09-17T17:11:01.078Z,1.60
2022-09-17T17:15:06.000Z,1.47
2022-09-17T17:19:07.821Z,2.07
2022-09-17T17:23:09.754Z,1.40
2022-09-17T17:27:12.926Z,1.03
2022-09-17T17:31:14.768Z,0.80
2022-09-17T17:35:17.791Z,1.03
2022-09-17T17:39:22.275Z,1.30
2022-09-17T17:43:24.342Z,0.93
2022-09-17T17:47:26.188Z,1.07
2022-09-17T17:51:28.057Z,0.70
2022-09-17T17:56:00.957Z,1.00
2022-09-17T18:00:03.894Z,0.40
2022-09-17T18:04:07.831Z,0.90
2022-09-17T18:08:09.572Z,0.83
2022-09-17T18:12:11.345Z,0.70
2022-09-17T18:16:16.602Z,0.63
2022-09-17T18:20:18.465Z,0.67
2022-09-17T18:24:20.401Z,0.70
2022-09-17T18:28:22.727Z,0.80
2022-09-17T18:32:24.703Z,0.57
2022-09-17T18:36:28.914Z,0.80
2022-09-17T18:40:32.799Z,1.00
2022-09-17T18:44:34.748Z,0.60
2022-09-17T18:48:36.920Z,0.90
2022-09-17T18:52:38.820Z,0.80
2022-09-17T18:56:41.695Z,0.50
2022-09-17T19:00:43.957Z,0.70
2022-09-17T19:04:45.748Z,0.90
2022-09-17T19:08:47.522Z,0.80
2022-09-17T19:12:52.610Z,0.90
2022-09-17T19:16:55.301Z,0.77
2022-09-17T19:21:17.536Z,1.20
2022-09-17T19:25:23.236Z,1.43
2022-09-17T19:29:27.603Z,1.20
2022-09-17T19:33:29.848Z,0.77
2022-09-17T19:37:31.606Z,1.40
2022-09-17T19:41:36.111Z,0.67
2022-09-17T19:45:37.874Z,0.70
2022-09-17T19:49:40.016Z,0.60
2022-09-17T19:53:41.825Z,0.60
2022-09-17T19:57:43.631Z,0.40
2022-09-17T20:01:49.213Z,0.60
2022-09-17T20:06:02.331Z,0.63
2022-09-17T20:10:05.306Z,0.60
2022-09-17T20:14:07.339Z,0.80
2022-09-17T20:18:09.063Z,0.60
2022-09-17T20:22:10.929Z,0.87
2022-09-17T20:26:12.978Z,0.67
2022-09-17T20:30:15.085Z,0.70
2022-09-17T20:34:16.859Z,0.60
2022-09-17T20:39:09.618Z,0.47
2022-09-17T20:42:40.378Z,0.60
2022-09-17T20:46:44.652Z,0.60
2022-09-17T20:51:04.590Z,1.43
2022-09-17T20:55:06.775Z,0.50
2022-09-17T20:59:17.387Z,0.50
2022-09-17T21:03:21.730Z,0.37
2022-09-17T21:07:23.468Z,0.40
2022-09-17T21:11:25.497Z,0.47
2022-09-17T21:15:27.343Z,0.50
2022-09-17T21:19:29.673Z,0.70
2022-09-17T21:23:32.963Z,0.60
2022-09-17T21:27:34.725Z,0.50
2022-09-17T21:31:37.205Z,0.40
2022-09-17T21:35:39.063Z,0.40
2022-09-17T21:39:40.983Z,0.40
2022-09-17T21:43:43.110Z,0.30
2022-09-17T21:47:44.843Z,0.30
2022-09-17T21:51:46.841Z,0.20
2022-09-17T21:55:48.600Z,0.20
2022-09-17T21:59:50.349Z,0.30
2022-09-17T22:03:52.544Z,0.60
2022-09-17T22:07:54.357Z,0.33
2022-09-17T22:11:56.137Z,0.33
2022-09-17T22:16:00.711Z,0.43
2022-09-17T22:20:04.550Z,0.63
2022-09-17T22:24:06.607Z,0.50
2022-09-17T22:28:21.045Z,0.33
2022-09-17T22:32:23.851Z,0.50
2022-09-17T22:36:26.461Z,0.47
2022-09-17T22:40:28.219Z,0.40
2022-09-17T22:44:30.903Z,0.40
2022-09-17T22:48:32.616Z,0.40
2022-09-17T22:52:34.305Z,0.60
2022-09-17T22:56:36.586Z,0.40
2022-09-17T23:00:38.251Z,0.40
2022-09-17T23:04:39.955Z,0.37
2022-09-17T23:08:41.737Z,0.30
2022-09-17T23:12:43.460Z,0.50
2022-09-17T23:16:47.418Z,0.37
2022-09-17T23:21:00.297Z,0.40
2022-09-17T23:25:02.068Z,0.50
2022-09-17T23:29:05.400Z,0.40
2022-09-17T23:33:09.327Z,0.30
2022-09-17T23:37:11.010Z,0.50
2022-09-17T23:41:18.802Z,0.30
2022-09-17T23:45:20.832Z,0.63
2022-09-17T23:49:22.521Z,0.73
2022-09-17T23:53:24.253Z,0.50
2022-09-17T23:57:27.691Z,0.70
